createdAt,value
2023-04-04T00:01:08.408Z,1.80
2023-04-04T00:03:36.965Z,2.10
2023-04-04T00:06:05.742Z,1.95
2023-04-04T00:08:33.998Z,1.55
2023-04-04T00:11:02.277Z,2.30
2023-04-04T00:13:31.955Z,1.65
2023-04-04T00:16:00.199Z,1.52
2023-04-04T00:18:28.495Z,1.90
2023-04-04T00:20:56.742Z,1.88
2023-04-04T00:23:25.031Z,1.80
2023-04-04T00:25:53.589Z,1.83
2023-04-04T00:28:21.972Z,1.67
2023-04-04T00:30:51.588Z,1.80
2023-04-04T00:33:19.914Z,1.95
2023-04-04T00:35:49.557Z,1.42
2023-04-04T00:38:18.266Z,1.60
2023-04-04T00:40:48.845Z,1.67
2023-04-04T00:43:17.400Z,1.50
2023-04-04T00:45:45.747Z,1.50
2023-04-04T00:48:15.459Z,1.52
2023-04-04T00:50:43.781Z,1.55
2023-04-04T00:53:12.135Z,1.88
2023-04-04T00:55:40.660Z,1.77
2023-04-04T00:58:08.941Z,1.50
2023-04-04T01:00:37.581Z,1.83
2023-04-04T01:03:07.758Z,1.60
2023-04-04T01:05:37.553Z,2.25
2023-04-04T01:08:06.142Z,1.77
2023-04-04T01:10:34.458Z,1.38
2023-04-04T01:13:02.836Z,1.80
2023-04-04T01:15:31.147Z,1.70
2023-04-04T01:18:01.829Z,1.55
2023-04-04T01:20:31.625Z,2.10
2023-04-04T01:23:01.281Z,1.23
2023-04-04T01:25:32.882Z,1.67
2023-04-04T01:28:01.439Z,1.75
2023-04-04T01:30:34.969Z,1.88
2023-04-04T01:33:11.649Z,1.55
2023-04-04T01:35:44.427Z,1.75
2023-04-04T01:38:19.973Z,1.80
2023-04-04T01:40:52.124Z,1.90
2023-04-04T01:43:20.402Z,1.95
2023-04-04T01:45:48.733Z,1.50
2023-04-04T01:48:17.095Z,1.90
2023-04-04T01:50:45.388Z,1.80
2023-04-04T01:53:13.726Z,1.55
2023-04-04T01:55:42.513Z,1.90
2023-04-04T01:58:12.294Z,1.52
2023-04-04T02:00:40.837Z,1.98
2023-04-04T02:03:09.364Z,2.42
2023-04-04T02:05:37.939Z,1.95
2023-04-04T02:08:07.557Z,2.08
2023-04-04T02:10:35.933Z,2.00
2023-04-04T02:13:04.198Z,2.47
2023-04-04T02:15:34.343Z,2.47
2023-04-04T02:18:03.590Z,1.40
2023-04-04T02:20:31.892Z,2.25
2023-04-04T02:23:00.301Z,2.08
2023-04-04T02:25:28.585Z,1.80
2023-04-04T02:27:56.903Z,1.75
2023-04-04T02:30:25.181Z,1.63
2023-04-04T02:32:54.888Z,2.22
2023-04-04T02:35:23.174Z,1.70
2023-04-04T02:37:51.586Z,1.73
2023-04-04T02:40:20.118Z,1.63
2023-04-04T02:42:48.464Z,1.60
2023-04-04T02:45:17.549Z,1.98
2023-04-04T02:47:51.103Z,1.95
2023-04-04T02:50:21.235Z,2.05
2023-04-04T02:52:49.550Z,2.00
2023-04-04T02:55:17.969Z,1.88
2023-04-04T02:57:52.769Z,2.03
2023-04-04T03:00:21.687Z,1.30
2023-04-04T03:02:55.463Z,1.80
2023-04-04T03:05:25.553Z,1.80
2023-04-04T03:07:56.922Z,2.03
2023-04-04T03:10:25.345Z,2.00
2023-04-04T03:12:53.678Z,1.20
2023-04-04T03:15:22.267Z,2.35
2023-04-04T03:17:50.688Z,1.77
2023-04-04T03:20:19.136Z,1.85
2023-04-04T03:22:49.225Z,2.30
2023-04-04T03:25:17.619Z,1.70
2023-04-04T03:27:46.114Z,1.95
2023-04-04T03:30:14.697Z,1.92
2023-04-04T03:32:42.955Z,1.88
2023-04-04T03:35:11.836Z,2.08
2023-04-04T03:37:40.474Z,2.10
2023-04-04T03:40:11.545Z,1.67
2023-04-04T03:42:39.787Z,1.98
2023-04-04T03:45:09.607Z,2.45
2023-04-04T03:47:37.930Z,2.10
2023-04-04T03:50:07.901Z,3.33
2023-04-04T03:52:39.868Z,2.45
2023-04-04T03:55:11.332Z,2.30
2023-04-04T03:57:39.614Z,2.40
2023-04-04T04:00:09.497Z,2.17
2023-04-04T04:02:37.795Z,2.65
2023-04-04T04:05:07.120Z,2.10
2023-04-04T04:07:35.410Z,2.85
2023-04-04T04:10:03.716Z,2.47
2023-04-04T04:12:33.320Z,2.30
2023-04-04T04:15:01.952Z,2.70
2023-04-04T04:17:30.214Z,2.90
2023-04-04T04:19:58.525Z,2.50
2023-04-04T04:22:26.763Z,2.20
2023-04-04T04:24:55.057Z,2.83
2023-04-04T04:27:23.761Z,2.55
2023-04-04T04:29:53.384Z,2.42
2023-04-04T04:32:21.895Z,2.35
2023-04-04T04:34:50.266Z,2.63
2023-04-04T04:37:18.626Z,2.55
2023-04-04T04:39:46.872Z,3.22
2023-04-04T04:42:15.146Z,2.50
2023-04-04T04:44:43.407Z,3.53
2023-04-04T04:47:13.093Z,2.80
2023-04-04T04:49:42.264Z,3.00
2023-04-04T04:52:11.094Z,3.17
2023-04-04T04:54:39.418Z,3.22
2023-04-04T04:57:08.032Z,2.75
2023-04-04T04:59:37.069Z,3.35
2023-04-04T05:02:05.414Z,3.42
2023-04-04T05:04:35.250Z,2.53
2023-04-04T05:07:03.577Z,2.35
2023-04-04T05:09:31.880Z,3.10
2023-04-04T05:12:00.242Z,2.67
2023-04-04T05:14:28.563Z,3.10
2023-04-04T05:16:56.919Z,2.45
2023-04-04T05:19:25.294Z,3.00
2023-04-04T05:21:55.127Z,2.50
2023-04-04T05:24:23.988Z,3.30
2023-04-04T05:26:52.293Z,2.85
2023-04-04T05:29:20.725Z,2.80
2023-04-04T05:31:48.980Z,2.58
2023-04-04T05:34:17.215Z,2.63
2023-04-04T05:36:45.841Z,2.88
2023-04-04T05:39:15.638Z,3.40
2023-04-04T05:41:44.144Z,2.72
2023-04-04T05:44:12.607Z,2.97
2023-04-04T05:46:40.944Z,2.60
2023-04-04T05:49:09.245Z,2.53
2023-04-04T05:51:37.457Z,3.35
2023-04-04T05:54:07.449Z,3.65
2023-04-04T05:56:37.144Z,3.28
2023-04-04T05:59:05.437Z,3.55
2023-04-04T06:01:33.699Z,3.35
2023-04-04T06:04:01.961Z,2.67
2023-04-04T06:06:30.752Z,3.05
2023-04-04T06:08:59.125Z,2.97
2023-04-04T06:11:27.882Z,3.10
2023-04-04T06:13:57.546Z,2.70
2023-04-04T06:16:25.967Z,2.80
2023-04-04T06:18:54.319Z,2.70
2023-04-04T06:21:22.670Z,2.95
2023-04-04T06:23:51.086Z,3.22
2023-04-04T06:26:19.296Z,2.70
2023-04-04T06:28:50.717Z,2.45
2023-04-04T06:31:20.387Z,2.53
2023-04-04T06:33:48.681Z,2.55
2023-04-04T06:36:17.246Z,2.83
2023-04-04T06:38:45.584Z,2.58
2023-04-04T06:41:13.852Z,2.00
2023-04-04T06:43:42.141Z,2.65
2023-04-04T06:46:10.836Z,2.50
2023-04-04T06:48:40.544Z,2.38
2023-04-04T06:51:09.186Z,2.63
2023-04-04T06:53:37.483Z,2.22
2023-04-04T06:56:06.255Z,1.90
2023-04-04T06:58:34.605Z,1.90
2023-04-04T07:01:03.243Z,2.03
2023-04-04T07:03:32.239Z,1.65
2023-04-04T07:06:04.275Z,1.67
2023-04-04T07:08:36.118Z,1.83
2023-04-04T07:11:06.302Z,2.75
2023-04-04T07:13:35.130Z,1.88
2023-04-04T07:16:03.453Z,2.28
2023-04-04T07:18:32.328Z,2.10
2023-04-04T07:21:02.102Z,1.80
2023-04-04T07:23:30.381Z,2.20
2023-04-04T07:25:58.796Z,2.35
2023-04-04T07:28:27.054Z,1.70
2023-04-04T07:30:55.869Z,1.85
2023-04-04T07:33:25.430Z,1.77
2023-04-04T07:35:54.066Z,2.28
2023-04-04T07:38:23.788Z,1.20
2023-04-04T07:40:52.116Z,1.70
2023-04-04T07:43:20.412Z,1.52
2023-04-04T07:45:48.792Z,1.13
2023-04-04T07:48:17.230Z,1.13
2023-04-04T07:50:45.520Z,1.05
2023-04-04T07:53:13.849Z,0.77
2023-04-04T07:55:43.470Z,0.90
2023-04-04T07:58:11.826Z,1.23
2023-04-04T08:00:40.190Z,0.90
2023-04-04T08:03:08.837Z,2.50
2023-04-04T08:05:37.224Z,1.60
2023-04-04T08:08:05.772Z,1.20
2023-04-04T08:10:34.134Z,1.60
2023-04-04T08:13:05.771Z,1.70
2023-04-04T08:15:33.999Z,1.48
2023-04-04T08:18:02.640Z,1.45
2023-04-04T08:20:31.135Z,1.17
2023-04-04T08:22:59.614Z,1.10
2023-04-04T08:25:29.709Z,1.40
2023-04-04T08:27:58.114Z,1.52
2023-04-04T08:30:28.380Z,1.10
2023-04-04T08:32:56.702Z,1.20
2023-04-04T08:35:25.559Z,1.35
2023-04-04T08:37:53.803Z,1.27
2023-04-04T08:40:22.322Z,1.25
2023-04-04T08:42:51.707Z,1.00
2023-04-04T08:45:20.629Z,1.38
2023-04-04T08:47:51.423Z,1.15
2023-04-04T08:50:19.700Z,1.60
2023-04-04T08:52:48.033Z,1.50
2023-04-04T08:55:16.534Z,1.50
2023-04-04T08:57:44.791Z,1.10
2023-04-04T09:00:16.831Z,1.47
2023-04-04T09:02:51.384Z,0.80
2023-04-04T09:05:19.896Z,0.90
2023-04-04T09:07:48.226Z,1.20
2023-04-04T09:10:16.778Z,1.00
2023-04-04T09:12:47.500Z,0.90
2023-04-04T09:15:15.928Z,0.90
2023-04-04T09:17:44.222Z,1.20
2023-04-04T09:20:40.904Z,1.23
2023-04-04T09:23:13.147Z,1.00
2023-04-04T09:25:56.321Z,1.13
2023-04-04T09:28:31.394Z,0.80
2023-04-04T09:31:01.447Z,1.00
2023-04-04T09:33:29.709Z,1.03
2023-04-04T09:36:00.527Z,0.90
2023-04-04T09:38:30.187Z,1.17
2023-04-04T09:40:58.606Z,1.20
2023-04-04T09:43:29.231Z,1.00
2023-04-04T09:45:58.057Z,1.83
2023-04-04T09:48:27.408Z,1.40
2023-04-04T09:50:55.741Z,1.20
2023-04-04T09:53:25.461Z,1.10
2023-04-04T09:55:54.846Z,3.03
2023-04-04T09:58:26.432Z,0.97
2023-04-04T10:00:56.148Z,1.20
2023-04-04T10:03:25.053Z,0.93
2023-04-04T10:06:01.274Z,1.13
2023-04-04T10:08:31.069Z,1.80
2023-04-04T10:11:09.568Z,0.83
2023-04-04T10:13:41.752Z,1.40
2023-04-04T10:16:12.077Z,1.30
2023-04-04T10:18:40.817Z,0.90
2023-04-04T10:23:43.283Z,0.90
2023-04-04T10:26:12.599Z,0.90
2023-04-04T10:28:44.015Z,1.30
2023-04-04T10:31:19.210Z,2.10
2023-04-04T10:34:08.436Z,1.00
2023-04-04T10:36:41.764Z,1.20
2023-04-04T10:39:15.438Z,1.20
2023-04-04T10:41:43.757Z,0.97
2023-04-04T10:44:19.271Z,1.07
2023-04-04T10:46:48.728Z,1.07
2023-04-04T10:49:17.508Z,1.53
2023-04-04T10:51:55.719Z,1.47
2023-04-04T10:54:27.609Z,1.00
2023-04-04T10:56:56.764Z,1.03
2023-04-04T10:59:25.126Z,1.33
2023-04-04T11:01:58.070Z,1.20
2023-04-04T11:04:34.922Z,1.43
2023-04-04T11:07:11.693Z,1.10
2023-04-04T11:09:55.447Z,1.13
2023-04-04T11:12:31.501Z,1.30
2023-04-04T11:15:09.775Z,1.00
2023-04-04T11:18:17.977Z,1.30
2023-04-04T11:20:55.145Z,0.93
2023-04-04T11:23:24.369Z,0.90
2023-04-04T11:25:54.405Z,0.80
2023-04-04T11:28:44.939Z,0.97
2023-04-04T11:31:28.046Z,1.20
2023-04-04T11:33:58.442Z,1.30
2023-04-04T11:36:52.112Z,1.43
2023-04-04T11:39:26.945Z,1.17
2023-04-04T11:41:58.798Z,0.90
2023-04-04T11:44:30.409Z,0.80
2023-04-04T11:47:04.849Z,1.10
2023-04-04T11:49:36.269Z,0.80
2023-04-04T11:52:06.772Z,0.80
2023-04-04T11:54:35.364Z,0.97
2023-04-04T11:57:07.481Z,0.70
2023-04-04T11:59:40.748Z,0.80
2023-04-04T12:02:09.656Z,1.00
2023-04-04T12:04:39.813Z,0.97
2023-04-04T12:07:09.644Z,0.70
2023-04-04T12:09:38.036Z,1.00
2023-04-04T12:12:08.587Z,0.93
2023-04-04T12:14:36.901Z,1.20
2023-04-04T12:17:05.209Z,0.87
2023-04-04T12:19:37.080Z,0.83
2023-04-04T12:22:05.932Z,0.80
2023-04-04T12:24:34.526Z,1.70
2023-04-04T12:27:03.589Z,0.77
2023-04-04T12:29:36.262Z,0.80
2023-04-04T12:32:05.246Z,1.27
2023-04-04T12:34:34.597Z,1.13
2023-04-04T12:37:03.676Z,0.80
2023-04-04T12:39:32.244Z,0.80
2023-04-04T12:42:02.394Z,1.30
2023-04-04T12:44:33.625Z,1.20
2023-04-04T12:47:05.746Z,0.90
2023-04-04T12:49:40.268Z,1.00
2023-04-04T12:52:10.158Z,1.07
2023-04-04T12:54:40.792Z,1.00
2023-04-04T12:57:09.200Z,1.00
2023-04-04T12:59:39.984Z,1.00
2023-04-04T13:02:09.989Z,0.90
2023-04-04T13:04:39.756Z,0.80
2023-04-04T13:07:22.587Z,0.90
2023-04-04T13:09:55.020Z,1.00
2023-04-04T13:12:23.698Z,0.90
2023-04-04T13:15:01.125Z,1.10
2023-04-04T13:17:44.300Z,2.00
2023-04-04T13:20:13.159Z,1.97
2023-04-04T13:22:42.281Z,0.90
2023-04-04T13:25:11.251Z,0.90
2023-04-04T13:27:39.779Z,0.97
2023-04-04T13:30:11.544Z,1.23
2023-04-04T13:32:39.925Z,1.10
2023-04-04T13:35:09.215Z,1.43
2023-04-04T13:37:37.509Z,0.93
2023-04-04T13:40:07.252Z,1.30
2023-04-04T13:42:35.695Z,0.90
2023-04-04T13:45:04.044Z,0.80
2023-04-04T13:47:33.661Z,0.97
2023-04-04T13:50:01.975Z,1.33
2023-04-04T13:52:30.275Z,1.27
2023-04-04T13:54:58.576Z,1.30
2023-04-04T13:57:28.795Z,0.80
2023-04-04T13:59:57.354Z,1.50
2023-04-04T14:02:26.023Z,0.90
2023-04-04T14:04:55.693Z,0.77
2023-04-04T14:07:24.013Z,1.30
2023-04-04T14:09:52.267Z,1.30
2023-04-04T14:12:20.637Z,0.93
2023-04-04T14:14:48.961Z,1.00
2023-04-04T14:17:17.263Z,0.77
2023-04-04T14:19:45.623Z,1.30
2023-04-04T14:22:15.195Z,0.90
2023-04-04T14:24:43.575Z,1.10
2023-04-04T14:27:11.927Z,1.30
2023-04-04T14:29:40.220Z,1.10
2023-04-04T14:32:08.521Z,0.90
2023-04-04T14:34:36.881Z,0.70
2023-04-04T14:37:05.202Z,1.00
2023-04-04T14:39:34.975Z,0.80
2023-04-04T14:42:03.280Z,0.93
2023-04-04T14:44:32.517Z,1.30
2023-04-04T14:47:02.090Z,1.13
2023-04-04T14:49:30.463Z,1.50
2023-04-04T14:51:58.771Z,1.60
2023-04-04T14:54:27.253Z,0.80
2023-04-04T14:56:57.860Z,1.00
2023-04-04T14:59:26.189Z,0.80
2023-04-04T15:01:54.538Z,1.23
2023-04-04T15:04:22.885Z,1.30
2023-04-04T15:06:51.515Z,1.40
2023-04-04T15:09:19.816Z,0.93
2023-04-04T15:11:49.636Z,0.90
2023-04-04T15:14:19.343Z,0.90
2023-04-04T15:16:47.737Z,1.10
2023-04-04T15:19:16.099Z,0.90
2023-04-04T15:21:44.369Z,1.10
2023-04-04T15:24:12.768Z,0.87
2023-04-04T15:26:41.074Z,0.87
2023-04-04T15:29:09.375Z,0.70
2023-04-04T15:31:39.176Z,1.00
2023-04-04T15:34:07.759Z,1.00
2023-04-04T15:36:36.485Z,1.00
2023-04-04T15:39:04.975Z,0.87
2023-04-04T15:41:33.288Z,0.93
2023-04-04T15:44:01.650Z,1.40
2023-04-04T15:46:30.068Z,1.00
2023-04-04T15:48:59.752Z,0.97
2023-04-04T15:51:28.923Z,1.10
2023-04-04T15:53:57.156Z,1.10
2023-04-04T15:56:25.856Z,1.30
2023-04-04T15:58:55.730Z,1.17
2023-04-04T16:01:24.101Z,1.10
2023-04-04T16:03:52.580Z,1.30
2023-04-04T16:06:22.440Z,1.10
2023-04-04T16:08:50.747Z,1.53
2023-04-04T16:11:19.539Z,1.10
2023-04-04T16:13:47.826Z,1.00
2023-04-04T16:16:16.219Z,1.20
2023-04-04T16:18:44.516Z,0.97
2023-04-04T16:21:12.874Z,1.33
2023-04-04T16:23:43.773Z,0.90
2023-04-04T16:26:12.108Z,1.03
2023-04-04T16:28:40.349Z,1.70
2023-04-04T16:31:08.689Z,1.20
2023-04-04T16:33:37.097Z,0.90
2023-04-04T16:36:05.980Z,0.93
2023-04-04T16:38:34.316Z,1.10
2023-04-04T16:41:04.013Z,1.33
2023-04-04T16:43:32.303Z,1.33
2023-04-04T16:46:00.650Z,1.00
2023-04-04T16:48:28.955Z,1.40
2023-04-04T16:50:57.572Z,1.77
2023-04-04T16:53:25.914Z,1.13
2023-04-04T16:55:54.365Z,1.37
2023-04-04T16:58:24.207Z,1.20
2023-04-04T17:00:52.533Z,1.10
2023-04-04T17:03:20.885Z,0.80
2023-04-04T17:05:49.186Z,1.23
2023-04-04T17:08:17.418Z,1.30
2023-04-04T17:10:45.945Z,1.17
2023-04-04T17:13:15.219Z,1.00
2023-04-04T17:15:44.888Z,1.20
2023-04-04T17:18:13.231Z,1.43
2023-04-04T17:20:43.473Z,1.40
2023-04-04T17:23:11.807Z,1.70
2023-04-04T17:25:40.175Z,1.37
2023-04-04T17:28:08.424Z,1.60
2023-04-04T17:30:36.980Z,1.23
2023-04-04T17:33:06.718Z,1.60
2023-04-04T17:35:35.198Z,1.50
2023-04-04T17:38:03.533Z,2.80
2023-04-04T17:40:31.784Z,2.50
2023-04-04T17:42:59.994Z,1.90
2023-04-04T17:45:29.438Z,2.20
2023-04-04T17:47:58.182Z,2.10
2023-04-04T17:50:28.178Z,1.77
2023-04-04T17:52:56.532Z,1.87
2023-04-04T17:55:24.868Z,1.30
2023-04-04T17:57:53.244Z,1.73
2023-04-04T18:00:23.164Z,1.50
2023-04-04T18:02:51.483Z,1.80
2023-04-04T18:05:19.809Z,1.40
2023-04-04T18:07:49.450Z,2.27
2023-04-04T18:10:18.111Z,1.60
2023-04-04T18:12:46.707Z,1.87
2023-04-04T18:15:15.000Z,1.80
2023-04-04T18:17:43.564Z,2.27
2023-04-04T18:20:16.469Z,2.03
2023-04-04T18:22:54.065Z,2.47
2023-04-04T18:25:22.656Z,3.17
2023-04-04T18:27:50.970Z,6.70
2023-04-04T18:30:19.223Z,4.80
2023-04-04T18:32:48.012Z,1.83
2023-04-04T18:35:16.339Z,2.53
2023-04-04T18:37:44.577Z,2.80
2023-04-04T18:40:14.430Z,3.10
2023-04-04T18:42:42.673Z,2.90
2023-04-04T18:45:12.572Z,2.87
2023-04-04T18:47:41.078Z,2.97
2023-04-04T18:50:10.292Z,2.73
2023-04-04T18:52:38.517Z,2.80
2023-04-04T18:55:07.871Z,3.00
2023-04-04T18:57:37.645Z,3.67
2023-04-04T19:00:08.136Z,4.00
2023-04-04T19:02:37.441Z,2.87
2023-04-04T19:05:07.150Z,2.63
2023-04-04T19:07:35.671Z,2.10
2023-04-04T19:10:06.619Z,2.27
2023-04-04T19:12:35.024Z,2.23
2023-04-04T19:15:05.226Z,2.20
2023-04-04T19:17:33.750Z,2.67
2023-04-04T19:20:02.102Z,2.50
2023-04-04T19:22:30.747Z,2.40
2023-04-04T19:24:59.046Z,2.93
2023-04-04T19:27:27.342Z,2.50
2023-04-04T19:29:55.972Z,2.67
2023-04-04T19:32:28.179Z,3.30
2023-04-04T19:34:57.408Z,3.00
2023-04-04T19:37:25.923Z,2.40
2023-04-04T19:39:54.231Z,2.30
2023-04-04T19:42:27.389Z,2.80
2023-04-04T19:44:55.744Z,2.80
2023-04-04T19:47:25.456Z,2.70
2023-04-04T19:49:53.905Z,2.60
2023-04-04T19:52:23.892Z,2.40
2023-04-04T19:54:52.115Z,10.63
2023-04-04T19:57:20.908Z,10.03
2023-04-04T20:00:01.712Z,5.27
2023-04-04T20:02:54.160Z,3.20
2023-04-04T20:06:04.306Z,3.57
2023-04-04T20:08:41.175Z,3.37
2023-04-04T20:11:09.539Z,4.30
2023-04-04T20:13:38.113Z,4.13
2023-04-04T20:16:11.492Z,4.00
2023-04-04T20:18:43.206Z,4.40
2023-04-04T20:21:13.844Z,4.33
2023-04-04T20:23:49.328Z,3.60
2023-04-04T20:26:46.060Z,2.37
2023-04-04T20:29:15.684Z,3.37
2023-04-04T20:31:45.558Z,2.53
2023-04-04T20:34:39.142Z,4.23
2023-04-04T20:37:10.796Z,3.07
2023-04-04T20:39:46.513Z,3.00
2023-04-04T20:42:41.493Z,2.93
2023-04-04T20:45:42.621Z,2.87
2023-04-04T20:48:37.300Z,3.20
2023-04-04T20:51:31.902Z,2.78
2023-04-04T20:54:02.291Z,3.38
2023-04-04T20:56:55.322Z,3.00
2023-04-04T20:59:36.787Z,3.23
2023-04-04T21:02:10.697Z,3.33
2023-04-04T21:04:39.090Z,3.40
2023-04-04T21:07:08.719Z,2.70
2023-04-04T21:09:37.027Z,2.70
2023-04-04T21:12:07.808Z,3.38
2023-04-04T21:14:37.436Z,4.10
2023-04-04T21:17:07.154Z,2.97
2023-04-04T21:19:35.370Z,3.50
2023-04-04T21:22:04.825Z,3.00
2023-04-04T21:24:36.560Z,2.67
2023-04-04T21:27:06.853Z,3.00
2023-04-04T21:29:35.114Z,2.80
2023-04-04T21:32:03.958Z,3.15
2023-04-04T21:34:32.330Z,3.13
2023-04-04T21:37:02.744Z,4.20
2023-04-04T21:39:31.620Z,2.88
2023-04-04T21:42:06.012Z,4.95
2023-04-04T21:44:36.280Z,3.70
2023-04-04T21:47:04.627Z,3.65
2023-04-04T21:49:33.152Z,3.55
2023-04-04T21:52:01.476Z,3.15
2023-04-04T21:54:29.797Z,3.20
2023-04-04T21:56:58.124Z,3.22
2023-04-04T21:59:27.859Z,3.03
2023-04-04T22:01:56.233Z,2.50
2023-04-04T22:04:24.553Z,2.67
2023-04-04T22:06:52.808Z,2.70
2023-04-04T22:09:22.595Z,2.78
2023-04-04T22:11:50.913Z,2.60
2023-04-04T22:14:22.793Z,2.47
2023-04-04T22:16:52.984Z,2.17
2023-04-04T22:19:23.817Z,2.33
2023-04-04T22:21:54.057Z,2.65
2023-04-04T22:24:22.939Z,2.95
2023-04-04T22:26:51.252Z,2.10
2023-04-04T22:29:19.618Z,2.72
2023-04-04T22:31:47.967Z,2.85
2023-04-04T22:34:17.634Z,2.28
2023-04-04T22:36:45.969Z,2.10
2023-04-04T22:39:15.971Z,2.20
2023-04-04T22:41:45.170Z,2.50
2023-04-04T22:44:13.439Z,2.72
2023-04-04T22:46:41.751Z,2.45
2023-04-04T22:49:10.287Z,2.70
2023-04-04T22:51:45.651Z,3.10
2023-04-04T22:54:15.412Z,3.45
2023-04-04T22:56:43.894Z,4.10
2023-04-04T22:59:12.292Z,4.50
2023-04-04T23:01:40.845Z,3.58
2023-04-04T23:04:09.357Z,3.28
2023-04-04T23:06:39.302Z,3.15
2023-04-04T23:09:08.693Z,2.88
2023-04-04T23:11:38.202Z,2.85
2023-04-04T23:14:09.061Z,2.42
2023-04-04T23:16:37.914Z,2.40
2023-04-04T23:19:06.188Z,2.17
2023-04-04T23:21:34.566Z,2.15
2023-04-04T23:24:04.262Z,2.20
2023-04-04T23:26:32.914Z,1.95
2023-04-04T23:29:01.421Z,2.22
2023-04-04T23:31:29.904Z,1.98
2023-04-04T23:33:59.954Z,2.25
2023-04-04T23:36:28.391Z,2.42
2023-04-04T23:38:56.798Z,2.33
2023-04-04T23:41:26.667Z,1.83
2023-04-04T23:43:54.983Z,2.08
2023-04-04T23:46:23.876Z,2.25
2023-04-04T23:48:52.286Z,1.95
2023-04-04T23:51:21.378Z,2.22
2023-04-04T23:53:49.635Z,1.85
2023-04-04T23:56:17.891Z,2.42
2023-04-04T23:58:47.612Z,2.30
